Airport details for: LTBA (Turkey)

Metar

LTBA 250850Z VRB03KT 6000 NSC 10/07 Q1021 NOSIG

General details

ICAO: LTBA
IATA: IST
Name (city): Ataturk
Major:
Country: Turkey
vACC: vACC Turkey
Description:
Scenery links:
FS9 scenery:
FSX/P3D scenery:
XP scenery:
Elevation: 163 ft.
Transition altitude: 10000 ft.
MSA: 9800 ft.
Latitude: 40.976111
Longitude: 28.814167
LTBA Charts
LTBA Notams
LTBA Online stations

Runways

Number Course Length Elevation Lat Lon ILS ILS freq ILS FAC GP
05 55° 8465ft / 2580 m 93ft 40.966264 28.81132 110.3 55° 3.0°
17L 174° 9843ft / 3000 m 157ft 40.996359 28.808525 111.1 174° 3.0°
17R 174° 9843ft / 3000 m 163ft 40.996356 28.806031 - - 3.0°
23 235° 8465ft / 2580 m 90ft 40.977764 28.836156 111.9 235° 3.2°
35L 354° 9843ft / 3000 m 102ft 40.96935 28.806978 111.5 354° 3.0°
35R 354° 9843ft / 3000 m 100ft 40.969456 28.80947 111.3 354° 3.0°